createdAt,value
2018-07-06T00:00:30.903Z,46.30
2018-07-06T00:03:11.588Z,46.50
2018-07-06T00:05:52.234Z,46.40
2018-07-06T00:08:32.896Z,46.50
2018-07-06T00:11:13.655Z,46.40
2018-07-06T00:13:54.635Z,46.40
2018-07-06T00:16:34.605Z,46.40
2018-07-06T00:19:14.959Z,46.40
2018-07-06T00:21:55.389Z,46.60
2018-07-06T00:24:36.361Z,46.50
2018-07-06T00:27:16.850Z,46.40
2018-07-06T00:29:57.544Z,46.40
2018-07-06T00:32:37.964Z,46.40
2018-07-06T00:35:18.737Z,46.50
2018-07-06T00:37:59.193Z,46.40
2018-07-06T00:40:39.841Z,46.40
2018-07-06T00:43:20.166Z,46.40
2018-07-06T00:46:00.995Z,46.40
2018-07-06T00:48:41.793Z,46.50
2018-07-06T00:51:22.571Z,46.40
2018-07-06T00:54:03.279Z,46.40
2018-07-06T00:56:43.632Z,46.40
2018-07-06T00:59:24.165Z,46.30
2018-07-06T01:02:04.658Z,46.50
2018-07-06T01:04:45.293Z,46.50
2018-07-06T01:07:25.708Z,46.40
2018-07-06T01:10:06.121Z,46.50
2018-07-06T01:12:51.540Z,46.40
2018-07-06T01:15:36.871Z,46.50
2018-07-06T01:18:18.395Z,46.40
2018-07-06T01:20:58.846Z,46.40
2018-07-06T01:23:39.211Z,46.40
2018-07-06T01:26:19.777Z,46.50
2018-07-06T01:29:00.456Z,46.40
2018-07-06T01:31:41.059Z,46.40
2018-07-06T01:34:21.990Z,46.40
2018-07-06T01:37:02.693Z,46.30
2018-07-06T01:39:43.517Z,46.30
2018-07-06T01:42:24.188Z,46.40
2018-07-06T01:45:04.752Z,46.30
2018-07-06T01:47:45.656Z,46.30
2018-07-06T01:50:26.566Z,46.30
2018-07-06T01:53:07.063Z,46.20
2018-07-06T01:55:47.943Z,46.30
2018-07-06T01:58:28.714Z,46.20
2018-07-06T02:01:09.212Z,46.20
2018-07-06T02:03:49.826Z,46.20
2018-07-06T02:06:30.592Z,46.30
2018-07-06T02:09:10.852Z,46.20
2018-07-06T02:11:51.303Z,46.20
2018-07-06T02:14:31.883Z,46.10
2018-07-06T02:17:12.556Z,46.20
2018-07-06T02:19:53.001Z,46.20
2018-07-06T02:22:33.465Z,46.20
2018-07-06T02:25:14.248Z,46.10
2018-07-06T02:27:55.036Z,46.10
2018-07-06T02:30:35.673Z,46.20
2018-07-06T02:33:16.301Z,46.10
2018-07-06T02:35:56.956Z,46.10
2018-07-06T02:38:37.315Z,46.20
2018-07-06T02:41:17.926Z,46.20
2018-07-06T02:43:58.481Z,46.10
2018-07-06T02:46:39.054Z,46.10
2018-07-06T02:49:19.530Z,46.20
2018-07-06T02:52:00.150Z,46.10
2018-07-06T02:54:40.744Z,46.10
2018-07-06T02:57:21.556Z,46.10
2018-07-06T03:00:02.228Z,46.00
2018-07-06T03:02:43.104Z,46.10
2018-07-06T03:05:23.543Z,46.10
2018-07-06T03:08:03.857Z,46.10
2018-07-06T03:10:44.640Z,46.00
2018-07-06T03:13:25.530Z,46.10
2018-07-06T03:16:05.706Z,46.00
2018-07-06T03:18:46.545Z,46.00
2018-07-06T03:21:27.013Z,46.30
2018-07-06T03:24:07.772Z,46.00
2018-07-06T03:26:48.762Z,46.00
2018-07-06T03:29:29.483Z,46.00
2018-07-06T03:32:09.819Z,45.90
2018-07-06T03:37:24.819Z,46.00
2018-07-06T03:40:05.427Z,45.90
2018-07-06T03:42:46.169Z,46.00
2018-07-06T03:45:26.503Z,45.90
2018-07-06T03:48:07.298Z,46.00
2018-07-06T03:50:47.817Z,46.00
2018-07-06T03:53:28.138Z,46.10
2018-07-06T03:56:08.666Z,46.00
2018-07-06T03:58:49.377Z,46.00
2018-07-06T04:01:30.056Z,46.10
2018-07-06T04:04:10.749Z,46.00
2018-07-06T04:06:51.397Z,46.00
2018-07-06T04:09:32.032Z,46.10
2018-07-06T04:12:12.809Z,46.00
2018-07-06T04:14:53.269Z,46.00
2018-07-06T04:17:33.891Z,46.00
2018-07-06T04:20:14.481Z,46.00
2018-07-06T04:22:54.815Z,46.00
2018-07-06T04:25:35.436Z,46.10
2018-07-06T04:28:16.412Z,46.30
2018-07-06T04:30:56.311Z,46.20
2018-07-06T04:33:36.572Z,46.50
2018-07-06T04:36:16.830Z,46.90
2018-07-06T04:38:57.086Z,47.20
2018-07-06T04:41:37.037Z,47.40
2018-07-06T04:44:17.050Z,47.60
2018-07-06T04:46:57.242Z,47.60
2018-07-06T04:49:37.601Z,47.70
2018-07-06T04:52:17.798Z,47.80
2018-07-06T04:54:58.013Z,47.80
2018-07-06T04:57:37.954Z,47.60
2018-07-06T05:00:18.117Z,47.60
2018-07-06T05:02:58.311Z,47.60
2018-07-06T05:05:38.528Z,47.50
2018-07-06T05:08:18.683Z,47.40
2018-07-06T05:10:58.938Z,47.40
2018-07-06T05:13:38.926Z,47.40
2018-07-06T05:16:19.371Z,47.30
2018-07-06T05:18:59.308Z,47.20
2018-07-06T05:21:39.309Z,47.20
2018-07-06T05:24:19.506Z,47.10
2018-07-06T05:26:59.346Z,47.20
2018-07-06T05:29:39.303Z,47.10
2018-07-06T05:32:19.668Z,47.10
2018-07-06T05:34:59.878Z,47.10
2018-07-06T05:37:40.074Z,47.10
2018-07-06T05:40:20.272Z,47.10
2018-07-06T05:43:00.382Z,47.00
2018-07-06T05:45:40.844Z,46.90
2018-07-06T05:48:20.785Z,47.00
2018-07-06T05:51:00.898Z,47.00
2018-07-06T05:53:41.207Z,47.00
2018-07-06T05:56:21.375Z,47.40
2018-07-06T05:59:01.617Z,47.50
2018-07-06T06:01:41.910Z,46.80
2018-07-06T06:04:22.642Z,46.90
2018-07-06T06:07:03.000Z,46.90
2018-07-06T06:09:32.009Z,47.00
2018-07-06T06:12:01.094Z,46.80
2018-07-06T06:14:30.200Z,46.70
2018-07-06T06:16:59.061Z,47.10
2018-07-06T06:19:28.322Z,47.00
2018-07-06T06:21:57.368Z,47.10
2018-07-06T06:24:26.566Z,47.00
2018-07-06T06:26:55.613Z,47.10
2018-07-06T06:29:24.414Z,47.00
2018-07-06T06:31:53.227Z,46.90
2018-07-06T06:34:22.033Z,46.90
2018-07-06T06:36:50.846Z,46.90
2018-07-06T06:39:19.901Z,46.80
2018-07-06T06:41:48.964Z,46.70
2018-07-06T06:44:18.110Z,46.80
2018-07-06T06:46:47.233Z,46.90
2018-07-06T06:49:16.600Z,46.80
2018-07-06T06:51:46.509Z,46.70
2018-07-06T06:54:16.354Z,46.80
2018-07-06T06:56:45.517Z,46.80
2018-07-06T06:59:15.175Z,46.70
2018-07-06T07:01:48.110Z,46.80
2018-07-06T07:04:17.105Z,47.30
2018-07-06T07:06:47.227Z,46.70
2018-07-06T07:09:16.935Z,46.60
2018-07-06T07:11:46.049Z,46.60
2018-07-06T07:14:15.942Z,46.60
2018-07-06T07:16:45.531Z,46.50
2018-07-06T07:19:15.281Z,46.60
2018-07-06T07:21:45.625Z,46.80
2018-07-06T07:24:17.533Z,46.70
2018-07-06T07:26:47.726Z,46.80
2018-07-06T07:29:19.261Z,46.50
2018-07-06T07:31:49.991Z,46.90
2018-07-06T07:34:20.455Z,46.60
2018-07-06T07:36:50.185Z,46.60
2018-07-06T07:39:21.915Z,46.70
2018-07-06T07:41:53.923Z,46.90
2018-07-06T07:44:24.426Z,47.00
2018-07-06T07:46:54.585Z,47.30
2018-07-06T07:49:26.345Z,47.50
2018-07-06T07:52:09.602Z,48.20
2018-07-06T07:54:50.051Z,48.60
2018-07-06T07:57:19.574Z,49.00
2018-07-06T07:59:49.772Z,49.30
2018-07-06T08:02:19.749Z,49.70
2018-07-06T08:04:50.865Z,49.90
2018-07-06T08:07:20.947Z,50.20
2018-07-06T08:09:50.687Z,50.30
2018-07-06T08:12:19.566Z,50.30
2018-07-06T08:14:48.500Z,50.40
2018-07-06T08:17:17.500Z,50.40
2018-07-06T08:19:46.429Z,50.60
2018-07-06T08:22:15.627Z,50.50
2018-07-06T08:24:44.444Z,50.50
2018-07-06T08:27:13.267Z,50.40
2018-07-06T08:29:42.375Z,50.50
2018-07-06T08:32:11.443Z,50.40
2018-07-06T08:34:51.747Z,50.40
2018-07-06T08:37:33.396Z,50.60
2018-07-06T08:40:02.248Z,50.30
2018-07-06T08:42:32.314Z,50.20
2018-07-06T08:45:01.599Z,50.20
2018-07-06T08:47:30.597Z,50.20
2018-07-06T08:50:00.100Z,50.20
2018-07-06T08:52:28.973Z,50.20
2018-07-06T08:54:58.833Z,50.10
2018-07-06T08:57:29.092Z,50.50
2018-07-06T08:59:57.906Z,50.40
2018-07-06T09:02:27.365Z,50.70
2018-07-06T09:04:57.175Z,50.80
2018-07-06T09:07:26.430Z,50.70
2018-07-06T09:09:55.926Z,50.90
2018-07-06T09:12:24.779Z,50.80
2018-07-06T09:14:53.907Z,50.90
2018-07-06T09:17:23.014Z,50.80
2018-07-06T09:19:53.089Z,50.70
2018-07-06T09:22:21.713Z,50.70
2018-07-06T09:24:51.775Z,50.50
2018-07-06T09:27:20.829Z,50.30
2018-07-06T09:29:49.638Z,50.00
2018-07-06T09:32:18.608Z,49.80
2018-07-06T09:34:47.604Z,49.50
2018-07-06T09:37:16.433Z,49.50
2018-07-06T09:39:45.854Z,49.40
2018-07-06T09:42:15.246Z,49.20
2018-07-06T09:44:44.241Z,49.10
2018-07-06T09:47:13.147Z,48.90
2018-07-06T09:49:42.003Z,49.00
2018-07-06T09:52:10.823Z,48.80
2018-07-06T09:54:39.966Z,48.60
2018-07-06T09:57:08.791Z,48.50
2018-07-06T09:59:37.734Z,48.40
2018-07-06T10:02:06.572Z,48.20
2018-07-06T10:04:35.486Z,48.10
2018-07-06T10:07:04.493Z,48.00
2018-07-06T10:09:33.302Z,48.00
2018-07-06T10:12:02.140Z,47.90
2018-07-06T10:14:31.014Z,47.70
2018-07-06T10:16:59.854Z,47.70
2018-07-06T10:19:28.738Z,47.60
2018-07-06T10:21:57.593Z,47.60
2018-07-06T10:24:26.482Z,47.40
2018-07-06T10:26:55.300Z,47.40
2018-07-06T10:29:37.325Z,47.50
2018-07-06T10:32:24.206Z,47.60
2018-07-06T10:34:53.063Z,47.40
2018-07-06T10:37:22.170Z,47.10
2018-07-06T10:39:51.528Z,47.10
2018-07-06T10:42:20.296Z,47.00
2018-07-06T10:44:49.169Z,47.00
2018-07-06T10:47:18.015Z,47.00
2018-07-06T10:49:46.867Z,46.90
2018-07-06T10:52:16.454Z,46.80
2018-07-06T10:54:45.858Z,46.80
2018-07-06T10:57:14.715Z,46.80
2018-07-06T10:59:43.563Z,46.70
2018-07-06T11:02:12.414Z,46.60
2018-07-06T11:04:41.241Z,46.60
2018-07-06T11:07:10.056Z,46.50
2018-07-06T11:09:38.857Z,46.40
2018-07-06T11:12:08.230Z,46.40
2018-07-06T11:14:37.074Z,46.50
2018-07-06T11:17:05.914Z,46.40
2018-07-06T11:19:34.721Z,46.40
2018-07-06T11:22:03.538Z,46.40
2018-07-06T11:24:32.347Z,46.20
2018-07-06T11:27:01.159Z,46.30
2018-07-06T11:29:29.987Z,46.20
2018-07-06T11:31:58.822Z,46.20
2018-07-06T11:34:27.647Z,46.00
2018-07-06T11:36:56.460Z,46.10
2018-07-06T11:39:25.319Z,46.10
2018-07-06T11:41:54.130Z,46.00
2018-07-06T11:44:23.014Z,46.10
2018-07-06T11:46:51.838Z,45.90
2018-07-06T11:49:20.666Z,45.90
2018-07-06T11:51:49.494Z,45.80
2018-07-06T11:54:18.316Z,45.80
2018-07-06T11:56:47.142Z,45.80
2018-07-06T11:59:15.965Z,45.80
2018-07-06T12:01:44.823Z,45.70
2018-07-06T12:04:13.731Z,46.40
2018-07-06T12:06:42.581Z,45.70
2018-07-06T12:09:11.430Z,45.80
2018-07-06T12:11:40.274Z,45.80
2018-07-06T12:14:09.094Z,45.50
2018-07-06T12:16:37.962Z,45.40
2018-07-06T12:19:06.775Z,45.20
2018-07-06T12:21:35.593Z,45.30
2018-07-06T12:24:04.475Z,45.20
2018-07-06T12:26:33.301Z,45.20
2018-07-06T12:29:02.167Z,45.10
2018-07-06T12:31:31.246Z,45.00
2018-07-06T12:34:00.094Z,44.10
2018-07-06T12:36:28.948Z,43.30
2018-07-06T12:38:57.790Z,41.90
2018-07-06T12:41:26.642Z,41.10
2018-07-06T12:43:55.464Z,41.40
2018-07-06T12:46:24.274Z,41.70
2018-07-06T12:48:53.201Z,41.70
2018-07-06T12:51:22.026Z,41.70
2018-07-06T12:53:50.876Z,41.80
2018-07-06T12:56:19.725Z,40.60
2018-07-06T12:58:48.733Z,40.90
2018-07-06T13:01:17.415Z,41.00
2018-07-06T13:03:46.266Z,41.00
2018-07-06T13:06:15.126Z,41.20
2018-07-06T13:08:43.993Z,41.30
2018-07-06T13:11:12.810Z,41.50
2018-07-06T13:13:41.619Z,41.70
2018-07-06T13:16:10.450Z,41.80
2018-07-06T13:18:39.266Z,41.80
2018-07-06T13:21:08.100Z,41.70
2018-07-06T13:23:36.909Z,41.90
2018-07-06T13:26:06.102Z,42.00
2018-07-06T13:28:34.919Z,41.40
2018-07-06T13:31:03.744Z,42.00
2018-07-06T13:33:32.622Z,42.10
2018-07-06T13:36:01.443Z,42.20
2018-07-06T13:38:30.291Z,42.10
2018-07-06T13:40:59.158Z,42.10
2018-07-06T13:43:28.019Z,42.10
2018-07-06T13:45:56.956Z,42.10
2018-07-06T13:48:25.763Z,41.90
2018-07-06T13:50:54.583Z,42.10
2018-07-06T13:53:23.468Z,42.20
2018-07-06T13:55:52.342Z,41.80
2018-07-06T13:58:21.221Z,42.20
2018-07-06T14:00:50.057Z,41.80
2018-07-06T14:03:18.922Z,42.10
2018-07-06T14:05:47.796Z,41.80
2018-07-06T14:08:16.663Z,41.60
2018-07-06T14:10:45.661Z,41.70
2018-07-06T14:13:14.731Z,42.00
2018-07-06T14:15:43.571Z,41.90
2018-07-06T14:18:12.395Z,42.10
2018-07-06T14:20:41.230Z,41.70
2018-07-06T14:23:10.111Z,41.90
2018-07-06T14:25:38.935Z,41.70
2018-07-06T14:28:08.036Z,42.00
2018-07-06T14:30:43.477Z,41.80
2018-07-06T14:33:12.333Z,42.60
2018-07-06T14:35:41.174Z,41.60
2018-07-06T14:38:10.049Z,42.00
2018-07-06T14:40:38.872Z,41.90
2018-07-06T14:43:07.708Z,41.60
2018-07-06T14:45:36.576Z,41.90
2018-07-06T14:48:05.571Z,41.70
2018-07-06T14:50:34.390Z,41.40
2018-07-06T14:53:03.209Z,41.90
2018-07-06T14:55:32.140Z,41.70
2018-07-06T14:58:01.011Z,41.90
2018-07-06T15:00:29.854Z,41.60
2018-07-06T15:02:58.903Z,41.20
2018-07-06T15:05:28.046Z,40.50
2018-07-06T15:07:56.871Z,40.50
2018-07-06T15:10:25.691Z,40.10
2018-07-06T15:12:54.539Z,40.20
2018-07-06T15:15:23.405Z,40.00
2018-07-06T15:17:52.231Z,39.90
2018-07-06T15:20:21.050Z,39.80
2018-07-06T15:22:49.914Z,39.50
2018-07-06T15:25:18.734Z,39.40
2018-07-06T15:27:47.554Z,39.50
2018-07-06T15:30:16.376Z,39.20
2018-07-06T15:32:45.219Z,39.00
2018-07-06T15:35:14.077Z,38.70
2018-07-06T15:37:42.895Z,38.70
2018-07-06T15:40:11.722Z,38.80
2018-07-06T15:42:40.535Z,38.30
2018-07-06T15:45:09.390Z,38.20
2018-07-06T15:47:38.250Z,37.80
2018-07-06T15:50:07.152Z,38.00
2018-07-06T15:52:35.946Z,37.70
2018-07-06T15:55:05.150Z,37.80
2018-07-06T15:57:34.019Z,37.80
2018-07-06T16:00:02.917Z,37.60
2018-07-06T16:02:31.749Z,37.80
2018-07-06T16:05:00.598Z,37.70
2018-07-06T16:07:29.552Z,38.00
2018-07-06T16:09:58.397Z,38.30
2018-07-06T16:12:27.201Z,38.20
2018-07-06T16:14:56.193Z,38.30
2018-07-06T16:17:25.014Z,38.30
2018-07-06T16:19:53.865Z,38.40
2018-07-06T16:22:22.683Z,38.30
2018-07-06T16:24:51.596Z,38.20
2018-07-06T16:27:20.410Z,38.00
2018-07-06T16:29:49.254Z,38.00
2018-07-06T16:32:18.085Z,38.00
2018-07-06T16:34:46.939Z,37.70
2018-07-06T16:37:15.748Z,37.90
2018-07-06T16:39:44.599Z,37.80
2018-07-06T16:42:13.456Z,37.80
2018-07-06T16:44:42.293Z,37.40
2018-07-06T16:47:11.137Z,37.70
2018-07-06T16:49:40.027Z,37.50
2018-07-06T16:52:08.862Z,37.70
2018-07-06T16:54:38.023Z,37.70
2018-07-06T16:57:06.916Z,37.50
2018-07-06T16:59:35.760Z,37.40
2018-07-06T17:02:04.594Z,37.40
2018-07-06T17:04:33.516Z,37.50
2018-07-06T17:07:02.405Z,37.50
2018-07-06T17:09:31.254Z,37.50
2018-07-06T17:12:00.086Z,37.70
2018-07-06T17:14:28.943Z,37.70
2018-07-06T17:16:57.870Z,37.80
2018-07-06T17:19:26.765Z,37.90
2018-07-06T17:21:55.606Z,37.60
2018-07-06T17:24:24.432Z,37.70
2018-07-06T17:26:53.646Z,37.80
2018-07-06T17:29:22.470Z,37.70
2018-07-06T17:31:51.347Z,37.70
2018-07-06T17:34:20.159Z,38.10
2018-07-06T17:36:49.176Z,38.00
2018-07-06T17:39:18.035Z,38.60
2018-07-06T17:41:46.911Z,38.00
2018-07-06T17:44:15.824Z,38.20
2018-07-06T17:46:44.663Z,38.10
2018-07-06T17:49:13.507Z,38.30
2018-07-06T17:51:42.383Z,38.40
2018-07-06T17:54:11.250Z,38.20
2018-07-06T17:56:40.149Z,38.50
2018-07-06T17:59:09.010Z,38.60
2018-07-06T18:01:37.890Z,38.30
2018-07-06T18:04:06.726Z,38.10
2018-07-06T18:06:35.617Z,38.20
2018-07-06T18:09:04.829Z,38.50
2018-07-06T18:11:33.717Z,38.20
2018-07-06T18:14:02.554Z,38.20
2018-07-06T18:16:31.454Z,38.30
2018-07-06T18:19:00.307Z,38.10
2018-07-06T18:21:29.174Z,38.30
2018-07-06T18:23:59.041Z,38.20
2018-07-06T18:26:27.910Z,38.20
2018-07-06T18:28:56.710Z,38.20
2018-07-06T18:31:25.581Z,38.20
2018-07-06T18:33:54.417Z,38.50
2018-07-06T18:36:23.377Z,38.50
2018-07-06T18:38:52.219Z,38.60
2018-07-06T18:41:21.081Z,38.70
2018-07-06T18:43:49.902Z,38.90
2018-07-06T18:48:47.222Z,38.30
2018-07-06T18:51:16.581Z,38.90
2018-07-06T18:53:45.438Z,39.30
2018-07-06T18:56:14.251Z,39.20
2018-07-06T18:58:43.074Z,39.00
2018-07-06T19:01:11.903Z,39.50
2018-07-06T19:03:40.725Z,39.20
2018-07-06T19:06:09.639Z,39.30
2018-07-06T19:08:38.462Z,39.20
2018-07-06T19:11:09.086Z,39.30
2018-07-06T19:13:38.079Z,39.10
2018-07-06T19:16:07.007Z,39.00
2018-07-06T19:18:35.856Z,39.40
2018-07-06T19:21:04.703Z,39.60
2018-07-06T19:23:33.620Z,39.80
2018-07-06T19:26:02.687Z,39.70
2018-07-06T19:28:31.566Z,39.50
2018-07-06T19:31:00.675Z,39.60
2018-07-06T19:33:29.739Z,39.40
2018-07-06T19:35:58.791Z,39.50
2018-07-06T19:38:27.674Z,39.60
2018-07-06T19:40:56.508Z,39.60
2018-07-06T19:43:25.621Z,39.70
2018-07-06T19:45:54.514Z,39.80
2018-07-06T19:48:23.717Z,39.80
2018-07-06T19:50:52.661Z,39.60
2018-07-06T19:53:21.743Z,39.60
2018-07-06T19:55:50.599Z,39.60
2018-07-06T19:58:19.501Z,39.90
2018-07-06T20:00:48.674Z,39.80
2018-07-06T20:03:17.750Z,39.90
2018-07-06T20:05:46.741Z,39.60
2018-07-06T20:08:15.906Z,39.60
2018-07-06T20:10:44.752Z,39.70
2018-07-06T20:13:14.056Z,39.80
2018-07-06T20:15:42.995Z,39.50
2018-07-06T20:18:11.955Z,39.70
2018-07-06T20:20:40.971Z,39.70
2018-07-06T20:23:09.857Z,39.80
2018-07-06T20:25:38.700Z,39.90
2018-07-06T20:28:07.901Z,39.50
2018-07-06T20:30:36.848Z,39.20
2018-07-06T20:33:06.077Z,39.70
2018-07-06T20:35:35.143Z,39.60
2018-07-06T20:38:04.370Z,39.60
2018-07-06T20:40:33.419Z,39.80
2018-07-06T20:43:02.292Z,39.60
2018-07-06T20:45:31.206Z,39.80
2018-07-06T20:48:00.103Z,39.70
2018-07-06T20:50:28.946Z,39.80
2018-07-06T20:52:57.775Z,39.90
2018-07-06T20:55:26.863Z,40.40
2018-07-06T20:57:56.038Z,40.00
2018-07-06T21:00:27.659Z,39.80
2018-07-06T21:02:57.640Z,40.40
2018-07-06T21:05:27.487Z,39.80
2018-07-06T21:07:57.304Z,39.90
2018-07-06T21:10:27.320Z,39.90
2018-07-06T21:12:57.450Z,40.00
2018-07-06T21:15:27.456Z,40.00
2018-07-06T21:17:57.371Z,40.10
2018-07-06T21:20:27.115Z,40.10
2018-07-06T21:22:56.892Z,40.10
2018-07-06T21:25:26.848Z,40.20
2018-07-06T21:28:02.721Z,40.30
2018-07-06T21:30:32.541Z,40.20
2018-07-06T21:33:02.366Z,40.40
2018-07-06T21:35:32.151Z,40.50
2018-07-06T21:38:01.844Z,40.30
2018-07-06T21:40:31.918Z,40.50
2018-07-06T21:43:02.197Z,40.80
2018-07-06T21:45:32.109Z,40.30
2018-07-06T21:48:01.770Z,40.60
2018-07-06T21:50:31.673Z,40.50
2018-07-06T21:53:02.162Z,40.40
2018-07-06T21:55:32.361Z,40.50
2018-07-06T21:58:02.334Z,40.70
2018-07-06T22:00:40.519Z,40.70
2018-07-06T22:03:19.958Z,41.00
2018-07-06T22:05:50.311Z,41.30
2018-07-06T22:08:20.099Z,40.90
2018-07-06T22:10:49.840Z,40.50
2018-07-06T22:13:19.583Z,40.70
2018-07-06T22:15:49.362Z,40.50
2018-07-06T22:18:20.177Z,40.70
2018-07-06T22:20:50.313Z,40.40
2018-07-06T22:23:20.020Z,40.50
2018-07-06T22:25:49.744Z,40.50
2018-07-06T22:28:19.441Z,40.50
2018-07-06T22:30:49.172Z,40.40
2018-07-06T22:33:18.881Z,40.30
2018-07-06T22:35:48.606Z,40.30
2018-07-06T22:38:18.336Z,40.20
2018-07-06T22:40:48.054Z,40.50
2018-07-06T22:43:18.169Z,40.50
2018-07-06T22:45:47.855Z,40.80
2018-07-06T22:48:17.557Z,40.60
2018-07-06T22:50:47.379Z,40.50
2018-07-06T22:55:46.347Z,41.10
2018-07-06T22:58:16.112Z,40.70
2018-07-06T23:00:45.863Z,40.50
2018-07-06T23:03:15.570Z,40.50
2018-07-06T23:05:45.601Z,40.30
2018-07-06T23:08:15.338Z,40.30
2018-07-06T23:10:45.211Z,40.20
2018-07-06T23:13:14.993Z,40.50
2018-07-06T23:15:44.745Z,40.20
2018-07-06T23:18:14.445Z,40.30
2018-07-06T23:20:44.253Z,40.40
2018-07-06T23:23:14.760Z,40.40
2018-07-06T23:25:46.482Z,40.40
2018-07-06T23:28:16.464Z,40.60
2018-07-06T23:30:46.257Z,40.70
2018-07-06T23:33:16.038Z,40.30
2018-07-06T23:35:45.774Z,40.50
2018-07-06T23:38:15.494Z,40.70
2018-07-06T23:40:45.247Z,40.60
2018-07-06T23:43:14.969Z,40.40
2018-07-06T23:45:44.672Z,40.50
2018-07-06T23:48:14.449Z,40.30
2018-07-06T23:50:44.255Z,40.60
2018-07-06T23:53:13.937Z,40.50
2018-07-06T23:55:43.789Z,40.60
2018-07-06T23:58:13.606Z,40.60
